Time;durP1;ratioP1;P1;durP2;ratioP2;P2;SDS_P1;SDS_P2;PMS_P1;PMS_P2;Temp;Humidity;BMP_temperature;BMP_pressure;BME280_temperature;BME280_humidity;BME280_pressure;Samples;Min_cycle;Max_cycle;Signal;HPM_P1;HPM_P2
2022/05/11 00:01:51;;;;;;;6.00;2.45;;;13.30;99.90;;;;;;4940205;29;20098;-77
2022/05/11 00:04:17;;;;;;;7.28;3.20;;;13.30;99.90;;;;;;4947033;29;20036;-77
2022/05/11 00:06:43;;;;;;;7.15;2.88;;;13.30;99.90;;;;;;4944619;28;20138;-77
2022/05/11 00:09:12;;;;;;;6.55;3.10;;;13.40;99.90;;;;;;4943327;29;20490;-77
2022/05/11 00:11:38;;;;;;;3.60;2.50;;;13.40;99.90;;;;;;4941910;29;20522;-77
2022/05/11 00:14:04;;;;;;;5.03;2.47;;;13.40;99.90;;;;;;4944292;29;20478;-77
2022/05/11 00:16:30;;;;;;;4.55;2.40;;;13.30;99.90;;;;;;4941351;29;20783;-77
2022/05/11 00:18:56;;;;;;;4.40;2.42;;;13.30;99.90;;;;;;4952541;29;20486;-77
2022/05/11 00:21:22;;;;;;;4.32;2.67;;;13.40;99.90;;;;;;4945435;29;20087;-77
2022/05/11 00:23:48;;;;;;;12.32;2.95;;;13.30;99.90;;;;;;4944349;29;20036;-77
2022/05/11 00:26:15;;;;;;;6.72;2.70;;;13.30;99.90;;;;;;4941280;29;20074;-77
2022/05/11 00:28:41;;;;;;;4.05;2.05;;;13.30;99.90;;;;;;4944869;29;20094;-77
2022/05/11 00:31:06;;;;;;;7.97;3.28;;;13.30;99.90;;;;;;4939944;29;20028;-77
2022/05/11 00:33:32;;;;;;;4.47;2.25;;;13.30;99.90;;;;;;4950188;29;20090;-77
2022/05/11 00:35:58;;;;;;;5.18;2.38;;;13.20;99.90;;;;;;4942562;29;20036;-77
2022/05/11 00:38:25;;;;;;;8.60;2.55;;;13.30;99.90;;;;;;4943842;29;20395;-77
2022/05/11 00:41:00;;;;;;;9.60;2.45;;;13.20;99.90;;;;;;4942143;29;20043;-77
2022/05/11 00:43:33;;;;;;;;;;;13.30;99.90;;;;;;4943894;29;20050;-77
2022/05/11 00:46:17;;;;;;;2.83;1.80;;;13.30;99.90;;;;;;4942151;29;19919;-77
2022/05/11 00:51:33;;;;;;;6.68;2.20;;;13.30;99.90;;;;;;4948809;29;20047;-77
2022/05/11 00:54:00;;;;;;;4.80;2.42;;;13.30;99.90;;;;;;4952062;29;20043;-77
2022/05/11 00:56:27;;;;;;;3.75;2.72;;;13.30;99.90;;;;;;4949835;29;20052;-77
2022/05/11 00:59:01;;;;;;;8.63;3.00;;;13.30;99.90;;;;;;4941071;29;20040;-77
2022/05/11 01:01:27;;;;;;;7.43;3.03;;;13.30;99.90;;;;;;4942493;29;20086;-77
2022/05/11 01:04:00;;;;;;;3.35;1.67;;;13.40;99.90;;;;;;4952741;29;20103;-77
2022/05/11 01:06:27;;;;;;;8.05;2.05;;;13.30;99.90;;;;;;4948594;29;20036;-77
2022/05/11 01:08:53;;;;;;;5.00;2.75;;;13.40;99.90;;;;;;4944273;29;20067;-77
2022/05/11 01:11:19;;;;;;;4.35;1.95;;;13.40;99.90;;;;;;4956017;29;20057;-77
2022/05/11 01:13:46;;;;;;;4.95;1.75;;;13.40;99.90;;;;;;4952899;28;20063;-77
2022/05/11 01:16:12;;;;;;;5.88;3.20;;;13.40;99.90;;;;;;4941706;29;20407;-77
2022/05/11 01:18:40;;;;;;;5.22;1.63;;;13.40;99.90;;;;;;4942933;29;20302;-77
2022/05/11 01:21:07;;;;;;;4.22;1.77;;;13.40;99.90;;;;;;4954225;29;20046;-77
2022/05/11 01:23:47;;;;;;;4.03;2.08;;;13.40;99.90;;;;;;4936993;29;20040;-77
2022/05/11 01:26:15;;;;;;;3.08;2.30;;;13.40;99.90;;;;;;4940924;29;20067;-77
2022/05/11 01:28:44;;;;;;;4.00;2.15;;;13.30;99.90;;;;;;4952306;29;20034;-77
2022/05/11 01:31:11;;;;;;;6.40;2.22;;;13.40;99.90;;;;;;4944685;28;20047;-77
2022/05/11 01:33:42;;;;;;;7.45;2.10;;;13.40;99.90;;;;;;4935543;29;20071;-77
2022/05/11 01:36:29;;;;;;;5.22;1.98;;;13.50;99.90;;;;;;4935702;29;20051;-77
2022/05/11 01:39:02;;;;;;;6.13;2.10;;;13.50;99.90;;;;;;4935154;29;20043;-77
2022/05/11 01:41:32;;;;;;;5.03;2.17;;;13.50;99.90;;;;;;4929737;29;20558;-78
2022/05/11 01:43:58;;;;;;;3.53;1.73;;;13.60;99.90;;;;;;4953423;28;20577;-77
2022/05/11 01:46:25;;;;;;;9.75;3.13;;;13.60;99.90;;;;;;4944590;28;20495;-77
2022/05/11 01:48:51;;;;;;;5.55;2.65;;;13.60;99.90;;;;;;4935270;29;20102;-77
2022/05/11 01:51:19;;;;;;;5.65;3.05;;;13.60;99.90;;;;;;4935155;29;20476;-77
2022/05/11 01:53:45;;;;;;;3.67;2.10;;;13.60;99.90;;;;;;4928841;29;20188;-77
2022/05/11 01:56:14;;;;;;;3.58;2.30;;;13.50;99.90;;;;;;4933742;29;20377;-77
2022/05/11 01:58:39;;;;;;;3.80;2.45;;;13.60;99.90;;;;;;4933524;29;20040;-77
2022/05/11 02:01:05;;;;;;;3.88;2.63;;;13.50;99.90;;;;;;4933871;29;20399;-77
2022/05/11 02:03:31;;;;;;;7.07;2.42;;;13.60;99.90;;;;;;4932999;29;20090;-77
2022/05/11 02:08:43;;;;;;;4.35;2.50;;;13.50;99.90;;;;;;4933133;29;20079;-77
2022/05/11 02:11:10;;;;;;;4.45;2.95;;;13.50;99.90;;;;;;4932426;29;20506;-77
2022/05/11 02:13:36;;;;;;;4.40;3.38;;;13.50;99.90;;;;;;4933390;29;20546;-77
2022/05/11 02:16:02;;;;;;;6.28;2.65;;;13.60;99.90;;;;;;4933935;29;20044;-77
2022/05/11 02:18:28;;;;;;;5.78;2.85;;;13.60;99.90;;;;;;4932942;29;20682;-77
2022/05/11 02:20:54;;;;;;;3.58;2.33;;;13.60;99.90;;;;;;4933470;29;20119;-77
2022/05/11 02:23:22;;;;;;;5.43;2.58;;;13.60;99.90;;;;;;4932531;29;20048;-77
2022/05/11 02:25:49;;;;;;;5.85;3.40;;;13.60;99.90;;;;;;4934581;29;20039;-77
2022/05/11 02:28:16;;;;;;;5.97;2.22;;;13.60;99.90;;;;;;4933877;29;20040;-77
2022/05/11 02:30:44;;;;;;;4.15;2.22;;;13.60;99.90;;;;;;4924554;29;20490;-77
2022/05/11 02:33:10;;;;;;;3.50;2.95;;;13.60;99.90;;;;;;4935454;29;20047;-77
2022/05/11 02:35:36;;;;;;;3.97;2.55;;;13.60;99.90;;;;;;4934202;29;20078;-77
2022/05/11 02:38:06;;;;;;;6.50;2.85;;;13.60;99.90;;;;;;4935521;29;20094;-77
2022/05/11 02:40:37;;;;;;;5.43;3.00;;;13.60;99.90;;;;;;4933456;29;20046;-77
2022/05/11 02:43:03;;;;;;;3.42;2.30;;;13.60;99.90;;;;;;4935737;29;20048;-77
2022/05/11 02:45:31;;;;;;;4.28;3.00;;;13.60;99.90;;;;;;4934287;29;20131;-77
2022/05/11 02:47:57;;;;;;;5.45;2.75;;;13.60;99.90;;;;;;4932606;29;20044;-77
2022/05/11 02:50:28;;;;;;;3.67;2.80;;;13.60;99.90;;;;;;4916573;29;20099;-77
2022/05/11 02:52:54;;;;;;;5.22;2.72;;;13.60;99.90;;;;;;4932389;29;20048;-77
2022/05/11 02:55:20;;;;;;;5.97;2.70;;;13.60;99.90;;;;;;4933265;29;20043;-77
2022/05/11 02:57:46;;;;;;;4.80;3.30;;;13.60;99.90;;;;;;4937923;28;20434;-77
2022/05/11 03:00:15;;;;;;;7.78;3.17;;;13.60;99.90;;;;;;4932622;29;20043;-77
2022/05/11 03:02:41;;;;;;;4.72;3.13;;;13.60;99.90;;;;;;4933434;29;20088;-77
2022/05/11 03:05:07;;;;;;;7.20;3.70;;;13.60;99.90;;;;;;4932707;29;20055;-77
2022/05/11 03:07:32;;;;;;;4.35;2.60;;;13.60;99.90;;;;;;4932370;29;20050;-77
2022/05/11 03:09:58;;;;;;;7.97;2.88;;;13.60;99.90;;;;;;4931697;29;20044;-77
2022/05/11 03:12:24;;;;;;;6.03;3.33;;;13.70;99.90;;;;;;4937237;29;20051;-77
2022/05/11 03:14:53;;;;;;;7.63;3.22;;;13.60;99.90;;;;;;4937865;29;20047;-77
2022/05/11 03:17:19;;;;;;;8.60;3.45;;;13.60;99.90;;;;;;4932825;29;20498;-77
2022/05/11 03:19:45;;;;;;;6.78;2.65;;;13.70;99.90;;;;;;4932189;29;20526;-77
2022/05/11 03:22:10;;;;;;;6.22;2.63;;;13.70;99.90;;;;;;4934800;29;20062;-77
2022/05/11 03:24:36;;;;;;;4.93;2.33;;;13.60;99.90;;;;;;4954297;28;20048;-77
2022/05/11 03:27:01;;;;;;;4.90;2.95;;;13.70;99.90;;;;;;4938730;29;20555;-77
2022/05/11 03:29:28;;;;;;;6.55;3.10;;;13.70;99.90;;;;;;4932506;29;20044;-77
2022/05/11 03:34:39;;;;;;;5.43;2.92;;;13.70;99.90;;;;;;4932186;29;20059;-77
2022/05/11 03:37:17;;;;;;;6.65;3.13;;;13.70;99.90;;;;;;4918458;29;20044;-77
2022/05/11 03:39:42;;;;;;;6.50;3.15;;;13.70;99.90;;;;;;4939046;29;20043;-77
2022/05/11 03:42:12;;;;;;;6.38;3.47;;;13.70;99.90;;;;;;4943570;29;20043;-77
2022/05/11 03:44:38;;;;;;;7.38;3.67;;;13.70;99.90;;;;;;4935625;29;20087;-77
2022/05/11 03:47:04;;;;;;;5.28;2.80;;;13.70;99.90;;;;;;4935733;29;20082;-77
2022/05/11 03:49:30;;;;;;;4.03;2.60;;;13.70;99.90;;;;;;4935901;29;20084;-77
2022/05/11 03:51:56;;;;;;;6.60;2.58;;;13.70;99.90;;;;;;4935324;29;20471;-77
2022/05/11 03:54:22;;;;;;;8.52;3.63;;;13.70;99.90;;;;;;4941043;29;20051;-77
2022/05/11 03:56:48;;;;;;;5.03;2.70;;;13.70;99.90;;;;;;4942043;29;20557;-77
2022/05/11 03:59:13;;;;;;;6.78;2.30;;;13.70;99.90;;;;;;4935147;29;20039;-77
2022/05/11 04:01:39;;;;;;;6.80;2.67;;;13.70;99.90;;;;;;4947373;29;20047;-77
2022/05/11 04:04:05;;;;;;;6.05;3.60;;;13.70;99.90;;;;;;4935508;29;20055;-77
2022/05/11 04:06:30;;;;;;;5.80;2.90;;;13.70;99.90;;;;;;4935380;29;20040;-77
2022/05/11 04:08:56;;;;;;;7.00;2.63;;;13.70;99.90;;;;;;4934818;29;20058;-77
2022/05/11 04:11:22;;;;;;;8.25;3.47;;;13.80;99.90;;;;;;4946741;29;20039;-77
2022/05/11 04:13:49;;;;;;;8.02;3.28;;;13.80;99.90;;;;;;4937655;29;20577;-77
2022/05/11 04:16:15;;;;;;;8.27;3.63;;;13.70;99.90;;;;;;4935427;29;20533;-77
2022/05/11 04:18:42;;;;;;;5.97;2.47;;;13.80;99.90;;;;;;4935231;29;20494;-77
2022/05/11 04:21:08;;;;;;;7.50;3.65;;;13.80;99.90;;;;;;4935089;29;20047;-77
2022/05/11 04:23:34;;;;;;;5.32;2.42;;;13.80;99.90;;;;;;4934008;29;20127;-77
2022/05/11 04:26:00;;;;;;;5.75;2.40;;;13.80;99.90;;;;;;4944498;29;20065;-77
2022/05/11 04:28:25;;;;;;;6.82;2.92;;;13.80;99.90;;;;;;4940253;29;20042;-77
2022/05/11 04:30:59;;;;;;;6.95;4.03;;;13.80;99.90;;;;;;4934957;29;20071;-78
2022/05/11 04:33:24;;;;;;;6.85;3.30;;;13.80;99.90;;;;;;4934777;29;20047;-77
2022/05/11 04:35:50;;;;;;;9.73;3.47;;;13.80;99.90;;;;;;4934953;29;20039;-77
2022/05/11 04:38:15;;;;;;;7.50;3.63;;;13.80;99.90;;;;;;4927238;29;20516;-77
2022/05/11 04:40:41;;;;;;;9.07;3.63;;;13.80;99.90;;;;;;4943960;29;20086;-77
2022/05/11 04:43:10;;;;;;;9.15;4.20;;;13.90;99.90;;;;;;4938778;29;20054;-77
2022/05/11 04:45:38;;;;;;;4.13;3.63;;;13.90;99.90;;;;;;4935127;29;20126;-77
2022/05/11 04:48:03;;;;;;;8.38;4.32;;;13.90;99.90;;;;;;4932694;29;20047;-77
2022/05/11 04:50:29;;;;;;;4.68;2.47;;;13.90;99.90;;;;;;4949871;29;20039;-77
2022/05/11 04:52:55;;;;;;;6.53;3.40;;;13.90;99.90;;;;;;4943118;29;20490;-78
2022/05/11 04:55:20;;;;;;;7.40;3.15;;;13.90;99.90;;;;;;4947838;29;20043;-77
2022/05/11 04:57:46;;;;;;;6.03;3.22;;;14.00;99.90;;;;;;4934832;29;20063;-77
2022/05/11 05:00:12;;;;;;;6.00;3.03;;;14.00;99.90;;;;;;4940991;29;20177;-77
2022/05/11 05:02:38;;;;;;;3.70;2.42;;;14.00;99.90;;;;;;4946794;29;20035;-77
2022/05/11 05:05:05;;;;;;;6.45;2.78;;;14.00;99.90;;;;;;4934446;29;20487;-77
2022/05/11 05:07:34;;;;;;;7.60;3.75;;;14.00;99.90;;;;;;4934413;29;20055;-77
2022/05/11 05:10:01;;;;;;;6.18;3.13;;;14.10;99.90;;;;;;4940681;29;20043;-77
2022/05/11 05:12:27;;;;;;;7.88;3.47;;;14.10;99.90;;;;;;4944750;29;20158;-77
2022/05/11 05:14:52;;;;;;;7.20;3.00;;;14.10;99.90;;;;;;4947560;29;20056;-76
2022/05/11 05:17:18;;;;;;;8.02;3.30;;;14.20;99.90;;;;;;4942513;29;20075;-76
2022/05/11 05:19:45;;;;;;;7.28;3.00;;;14.20;99.90;;;;;;4934497;29;20035;-76
2022/05/11 05:22:11;;;;;;;6.40;3.38;;;14.30;99.90;;;;;;4934763;29;20418;-76
2022/05/11 05:24:37;;;;;;;6.78;3.67;;;14.40;99.90;;;;;;4934339;29;20513;-76
2022/05/11 05:27:03;;;;;;;6.70;2.65;;;14.40;99.90;;;;;;4934540;29;20044;-75
2022/05/11 05:32:14;;;;;;;4.88;3.03;;;14.50;99.90;;;;;;4934095;29;20051;-76
2022/05/11 05:34:41;;;;;;;8.63;2.78;;;14.50;99.90;;;;;;4934661;29;20048;-77
2022/05/11 05:37:07;;;;;;;7.45;3.97;;;14.60;99.90;;;;;;4934912;29;20384;-77
2022/05/11 05:39:32;;;;;;;6.35;3.20;;;14.70;99.90;;;;;;4934049;29;20050;-77
2022/05/11 05:41:58;;;;;;;7.72;3.63;;;14.70;99.90;;;;;;4934167;29;20379;-77
2022/05/11 05:44:29;;;;;;;7.95;3.13;;;14.80;99.90;;;;;;4933602;29;20517;-77
2022/05/11 05:46:56;;;;;;;4.50;3.03;;;14.90;99.90;;;;;;4934912;29;20044;-77
2022/05/11 05:49:21;;;;;;;6.03;3.15;;;14.90;99.90;;;;;;4934081;29;20480;-77
2022/05/11 05:51:47;;;;;;;6.05;2.78;;;14.90;99.90;;;;;;4933840;29;20039;-77
2022/05/11 05:54:13;;;;;;;9.63;3.50;;;14.90;99.90;;;;;;4934873;29;20058;-77
2022/05/11 05:56:39;;;;;;;4.28;2.53;;;15.00;99.90;;;;;;4933591;29;20043;-77
2022/05/11 05:59:09;;;;;;;7.40;3.63;;;15.00;99.90;;;;;;4933874;29;20245;-76
2022/05/11 06:01:35;;;;;;;9.48;3.45;;;15.10;99.90;;;;;;4917714;29;20051;-76
2022/05/11 06:04:01;;;;;;;7.40;4.13;;;15.10;99.90;;;;;;4934023;29;20059;-76
2022/05/11 06:06:26;;;;;;;9.98;5.57;;;15.10;99.90;;;;;;4933169;29;20039;-76
2022/05/11 06:08:52;;;;;;;16.27;4.45;;;15.20;99.90;;;;;;4933593;29;20035;-76
2022/05/11 06:11:17;;;;;;;7.03;4.22;;;15.20;99.90;;;;;;4933425;29;20075;-76
2022/05/11 06:13:45;;;;;;;7.85;4.32;;;15.30;99.90;;;;;;4933042;29;20071;-76
2022/05/11 06:16:14;;;;;;;8.10;3.72;;;15.30;99.90;;;;;;4933591;29;20051;-76
2022/05/11 06:18:41;;;;;;;7.93;3.90;;;15.40;99.90;;;;;;4933487;29;20138;-76
2022/05/11 06:21:08;;;;;;;7.85;4.00;;;15.50;99.90;;;;;;4936281;29;20047;-76
2022/05/11 06:23:35;;;;;;;9.25;4.32;;;15.60;99.90;;;;;;4936228;29;20043;-78
2022/05/11 06:26:00;;;;;;;7.28;4.07;;;15.60;99.90;;;;;;4935996;29;20075;-77
2022/05/11 06:28:26;;;;;;;8.65;4.65;;;15.70;99.90;;;;;;4935900;29;20090;-77
2022/05/11 06:30:51;;;;;;;10.43;4.32;;;15.70;99.90;;;;;;4936232;29;20031;-77
2022/05/11 06:33:17;;;;;;;8.60;4.03;;;15.80;99.90;;;;;;4934354;29;20099;-77
2022/05/11 06:35:43;;;;;;;7.95;4.60;;;15.90;99.90;;;;;;4933446;29;20066;-77
2022/05/11 06:38:09;;;;;;;8.45;4.47;;;16.00;99.90;;;;;;4932870;29;20048;-77
2022/05/11 06:40:35;;;;;;;13.07;5.55;;;16.00;99.90;;;;;;4933548;29;20126;-77
2022/05/11 06:43:01;;;;;;;9.38;3.58;;;16.00;99.90;;;;;;4933443;29;20150;-77
2022/05/11 06:45:28;;;;;;;9.63;4.95;;;16.10;99.90;;;;;;4932855;29;20047;-77
2022/05/11 06:47:54;;;;;;;9.55;4.28;;;16.30;99.90;;;;;;4933037;29;20138;-77
2022/05/11 06:50:20;;;;;;;8.02;3.72;;;16.40;99.90;;;;;;4934602;29;20475;-76
2022/05/11 06:52:45;;;;;;;7.45;3.42;;;16.60;99.90;;;;;;4932637;29;20055;-76
2022/05/11 06:59:20;;;;;;;6.10;2.85;;;16.80;99.90;;;;;;4878089;29;20092;-76
2022/05/11 07:01:16;;;;;;;11.25;3.08;;;16.90;99.90;;;;;;4932436;29;20048;-76
2022/05/11 07:03:42;;;;;;;8.75;3.78;;;16.90;99.90;;;;;;4932085;29;20035;-76
2022/05/11 07:06:07;;;;;;;7.03;2.75;;;16.90;99.90;;;;;;4933826;29;20512;-76
2022/05/11 07:08:39;;;;;;;8.43;2.92;;;16.90;99.90;;;;;;4932182;29;20414;-76
2022/05/11 07:13:49;;;;;;;7.72;3.25;;;16.90;99.90;;;;;;4938427;29;20052;-76
2022/05/11 07:16:16;;;;;;;6.40;2.58;;;16.90;99.90;;;;;;4939026;29;20503;-76
2022/05/11 07:18:41;;;;;;;8.77;3.05;;;16.90;99.90;;;;;;4939055;29;20490;-76
2022/05/11 07:21:08;;;;;;;10.90;4.05;;;17.00;99.90;;;;;;4938664;29;20043;-77
2022/05/11 07:23:33;;;;;;;7.93;2.17;;;17.00;99.90;;;;;;4938436;29;20162;-77
2022/05/11 07:25:59;;;;;;;5.45;2.17;;;17.10;99.90;;;;;;4938397;29;20122;-77
2022/05/11 07:28:25;;;;;;;5.07;2.97;;;17.10;99.90;;;;;;4923073;29;20435;-78
2022/05/11 07:30:51;;;;;;;4.57;2.08;;;17.20;99.90;;;;;;4938724;29;20098;-77
2022/05/11 07:33:17;;;;;;;3.20;1.85;;;17.30;99.90;;;;;;4938869;29;20047;-77
2022/05/11 07:35:44;;;;;;;3.10;1.70;;;17.30;99.90;;;;;;4938740;29;20075;-77
2022/05/11 07:38:16;;;;;;;6.43;2.35;;;17.30;99.90;;;;;;4937850;29;20853;-77
2022/05/11 07:40:42;;;;;;;9.00;1.88;;;17.30;99.90;;;;;;4939021;29;20522;-77
2022/05/11 07:43:09;;;;;;;4.63;1.48;;;17.20;99.90;;;;;;4938011;29;20048;-77
2022/05/11 07:45:36;;;;;;;6.20;1.63;;;17.10;99.90;;;;;;4939093;29;20036;-77
2022/05/11 07:48:02;;;;;;;5.78;1.63;;;17.20;99.90;;;;;;4939534;29;20040;-77
2022/05/11 07:50:28;;;;;;;4.90;1.63;;;17.20;99.90;;;;;;4939016;29;20047;-78
2022/05/11 07:52:54;;;;;;;6.90;1.38;;;17.40;99.90;;;;;;4938443;29;20062;-77
2022/05/11 07:55:24;;;;;;;4.25;1.60;;;17.60;99.90;;;;;;4923075;29;20032;-78
2022/05/11 08:00:35;;;;;;;7.93;1.53;;;18.30;99.90;;;;;;4938577;29;20048;-77
2022/05/11 08:03:00;;;;;;;10.73;2.40;;;18.40;99.90;;;;;;4938026;29;20042;-77
2022/05/11 08:05:26;;;;;;;4.22;1.75;;;18.30;99.80;;;;;;4938816;29;20040;-77
2022/05/11 08:07:54;;;;;;;4.85;1.13;;;18.20;99.90;;;;;;4938446;29;20118;-78
2022/05/11 08:10:25;;;;;;;9.48;2.00;;;18.10;99.20;;;;;;4938223;29;20102;-77
2022/05/11 08:12:52;;;;;;;5.57;1.63;;;18.20;99.70;;;;;;4938495;29;20050;-78
2022/05/11 08:15:21;;;;;;;8.00;1.77;;;18.20;99.30;;;;;;4938165;29;20036;-77
2022/05/11 08:17:48;;;;;;;3.92;1.75;;;18.30;98.20;;;;;;4938432;29;20051;-76
2022/05/11 08:20:18;;;;;;;6.88;1.58;;;18.30;98.20;;;;;;4937974;29;20494;-76
2022/05/11 08:22:45;;;;;;;5.13;1.10;;;18.30;98.20;;;;;;4937142;29;20394;-76
2022/05/11 08:25:13;;;;;;;3.47;1.00;;;18.50;97.50;;;;;;4935238;29;20067;-76
2022/05/11 08:27:40;;;;;;;5.50;1.15;;;18.50;95.60;;;;;;4935363;29;20028;-77
2022/05/11 08:35:36;;;;;;;5.55;2.10;;;18.50;94.70;;;;;;4934789;29;20520;-75
2022/05/11 08:38:02;;;;;;;6.05;1.25;;;18.80;94.60;;;;;;4934701;29;20055;-76
2022/05/11 08:40:39;;;;;;;5.20;1.30;;;18.90;93.80;;;;;;4918848;29;20035;-76
2022/05/11 08:43:12;;;;;;;6.78;1.20;;;19.10;94.00;;;;;;4934689;29;20071;-76
2022/05/11 08:45:44;;;;;;;2.72;0.80;;;19.30;92.50;;;;;;4934959;29;20052;-79
2022/05/11 08:48:16;;;;;;;6.13;0.80;;;19.50;91.70;;;;;;4935052;29;20160;-76
2022/05/11 08:50:44;;;;;;;4.82;1.17;;;19.40;90.00;;;;;;4934985;29;20470;-76
2022/05/11 08:53:37;;;;;;;6.65;1.25;;;19.50;90.60;;;;;;4934442;29;20051;-76
2022/05/11 08:56:15;;;;;;;6.07;1.67;;;19.60;87.30;;;;;;4930829;29;20511;-76
2022/05/11 08:58:48;;;;;;;6.50;0.90;;;19.90;87.00;;;;;;4934743;29;20375;-76
2022/05/11 09:01:29;;;;;;;7.45;2.15;;;20.00;86.20;;;;;;4934602;29;20410;-76
2022/05/11 09:03:58;;;;;;;5.15;1.00;;;20.10;82.00;;;;;;4934522;29;20400;-78
2022/05/11 09:06:30;;;;;;;3.13;0.65;;;20.10;82.70;;;;;;4934598;29;20479;-78
2022/05/11 09:08:58;;;;;;;6.03;1.35;;;19.90;81.20;;;;;;4934663;29;20098;-78
2022/05/11 09:11:27;;;;;;;4.93;0.70;;;19.90;81.10;;;;;;4918587;29;20098;-78
2022/05/11 09:13:56;;;;;;;6.47;1.05;;;19.90;80.30;;;;;;4934060;29;20122;-78
2022/05/11 09:16:26;;;;;;;5.95;1.55;;;19.70;79.80;;;;;;4927506;29;20070;-78
2022/05/11 09:18:51;;;;;;;4.95;1.00;;;19.60;81.60;;;;;;4935662;29;20074;-78
2022/05/11 09:21:20;;;;;;;3.80;1.02;;;19.60;81.60;;;;;;4934308;29;20132;-78
2022/05/11 09:24:01;;;;;;;4.50;0.30;;;19.60;79.60;;;;;;4918322;29;20074;-78
2022/05/11 09:26:36;;;;;;;4.57;0.68;;;19.60;80.40;;;;;;4934169;29;20040;-78
2022/05/11 09:29:31;;;;;;;;;;;19.60;80.00;;;;;;4918635;29;20043;-78
2022/05/11 09:32:25;;;;;;;5.75;1.13;;;19.70;80.40;;;;;;4906609;29;19962;-77
2022/05/11 09:34:51;;;;;;;6.18;1.05;;;19.80;81.00;;;;;;4927633;29;20049;-78
2022/05/11 09:37:24;;;;;;;7.93;1.45;;;20.10;80.70;;;;;;4933575;29;20044;-78
2022/05/11 09:40:07;;;;;;;6.25;1.02;;;20.20;78.50;;;;;;4934013;29;20514;-78
2022/05/11 09:42:33;;;;;;;4.05;0.63;;;20.50;77.70;;;;;;4933795;29;20074;-78
2022/05/11 09:44:59;;;;;;;3.85;0.70;;;20.70;76.50;;;;;;4933862;29;20086;-78
2022/05/11 09:47:34;;;;;;;4.03;1.00;;;20.60;76.00;;;;;;4917906;29;20047;-77
2022/05/11 09:50:35;;;;;;;;;;;20.30;75.40;;;;;;4934527;29;20043;-78
2022/05/11 09:53:19;;;;;;;4.18;1.02;;;19.80;75.40;;;;;;4872259;29;20010;-77
2022/05/11 09:55:48;;;;;;;6.25;1.48;;;19.60;77.10;;;;;;4928704;29;20107;-77
2022/05/11 09:58:28;;;;;;;7.47;1.65;;;19.60;78.20;;;;;;4933812;29;20047;-77
2022/05/11 10:01:11;;;;;;;5.90;1.00;;;19.70;79.10;;;;;;4933410;29;20043;-78
2022/05/11 10:03:42;;;;;;;4.97;1.30;;;19.80;78.40;;;;;;4933769;29;20075;-77
2022/05/11 10:06:09;;;;;;;7.85;1.10;;;20.10;78.50;;;;;;4933494;29;20042;-76
2022/05/11 10:08:37;;;;;;;4.72;0.65;;;20.30;77.00;;;;;;4933551;29;20042;-76
2022/05/11 10:11:12;;;;;;;6.38;1.30;;;20.40;75.80;;;;;;4933376;29;20090;-76
2022/05/11 10:13:48;;;;;;;3.45;1.05;;;20.30;75.00;;;;;;4933712;29;20054;-77
2022/05/11 10:22:15;;;;;;;6.60;1.63;;;21.00;72.90;;;;;;4932930;29;20048;-76
2022/05/11 10:25:14;;;;;;;8.07;0.65;;;21.40;71.20;;;;;;4927527;29;20422;-76
2022/05/11 10:27:47;;;;;;;7.70;1.05;;;21.60;67.50;;;;;;4927144;29;20123;-76
2022/05/11 10:30:46;;;;;;;3.55;0.30;;;21.80;65.80;;;;;;4932742;29;20044;-77
2022/05/11 10:33:21;;;;;;;4.25;0.88;;;21.90;63.20;;;;;;4932477;29;20044;-77
2022/05/11 10:36:05;;;;;;;4.45;0.52;;;22.00;65.70;;;;;;4933795;29;20122;-77
2022/05/11 10:38:34;;;;;;;4.65;1.05;;;22.00;65.50;;;;;;4932662;29;20155;-76
2022/05/11 10:41:31;;;;;;;3.92;0.25;;;21.80;65.70;;;;;;4933257;29;20059;-76
2022/05/11 10:44:03;;;;;;;3.83;0.40;;;21.70;65.30;;;;;;4932806;29;20047;-76
2022/05/11 10:46:36;;;;;;;4.03;0.40;;;21.40;65.20;;;;;;4932195;29;20098;-76
2022/05/11 10:49:26;;;;;;;4.28;0.70;;;20.90;65.10;;;;;;4932874;29;20052;-76
2022/05/11 10:52:13;;;;;;;4.85;0.65;;;20.60;66.30;;;;;;4924693;29;20043;-76
2022/05/11 10:54:56;;;;;;;5.20;0.40;;;20.50;66.90;;;;;;4932776;29;20058;-76
2022/05/11 10:57:50;;;;;;;6.65;0.40;;;20.20;66.30;;;;;;4932578;29;20557;-76
2022/05/11 11:00:22;;;;;;;3.97;0.40;;;20.60;67.00;;;;;;4932651;29;20050;-76
2022/05/11 11:03:08;;;;;;;2.90;0.40;;;20.90;64.60;;;;;;4932590;29;20047;-75
2022/05/11 11:09:22;;;;;;;3.17;0.35;;;21.30;63.30;;;;;;4929600;29;20122;-78
2022/05/11 11:11:54;;;;;;;4.75;1.25;;;21.20;63.60;;;;;;4929430;29;20102;-78
2022/05/11 11:14:33;;;;;;;4.30;1.02;;;21.60;64.10;;;;;;4925881;29;20040;-77
2022/05/11 11:17:02;;;;;;;3.05;0.28;;;21.80;62.50;;;;;;4932519;29;20040;-77
2022/05/11 11:19:28;;;;;;;1.98;0.35;;;21.90;63.10;;;;;;4932555;29;20050;-77
2022/05/11 11:21:55;;;;;;;8.80;0.95;;;22.10;63.10;;;;;;4932477;29;20079;-76
2022/05/11 11:24:27;;;;;;;7.15;0.63;;;22.00;62.20;;;;;;4932476;29;20048;-78
2022/05/11 11:26:53;;;;;;;3.58;0.88;;;22.00;62.50;;;;;;4933814;29;20466;-77
2022/05/11 11:29:22;;;;;;;3.40;0.82;;;22.20;63.00;;;;;;4932516;29;20075;-78
2022/05/11 11:32:15;;;;;;;4.07;0.50;;;22.60;62.10;;;;;;4916909;29;20039;-77
2022/05/11 11:34:46;;;;;;;2.47;0.60;;;23.10;61.20;;;;;;4922740;29;20511;-77
2022/05/11 11:37:37;;;;;;;9.07;0.57;;;23.60;59.00;;;;;;4932476;29;20047;-78
2022/05/11 11:40:23;;;;;;;5.38;1.10;;;23.90;58.70;;;;;;4916525;29;20059;-77
2022/05/11 11:42:49;;;;;;;5.25;0.55;;;23.60;58.40;;;;;;4932237;29;20099;-77
2022/05/11 11:45:28;;;;;;;7.00;0.45;;;23.20;58.90;;;;;;4932385;29;20048;-78
2022/05/11 11:48:05;;;;;;;3.80;0.40;;;23.00;57.20;;;;;;4925684;29;20067;-78
2022/05/11 11:50:58;;;;;;;3.08;0.50;;;23.00;58.00;;;;;;4916347;29;20050;-78
2022/05/11 11:53:35;;;;;;;3.75;0.90;;;22.80;57.20;;;;;;4932295;29;20044;-78
2022/05/11 11:56:25;;;;;;;2.78;0.93;;;22.80;59.20;;;;;;4926505;29;20442;-78
2022/05/11 11:59:12;;;;;;;5.38;0.60;;;23.30;56.30;;;;;;4928772;29;20312;-78
2022/05/11 12:01:44;;;;;;;5.78;1.48;;;23.60;54.80;;;;;;4935530;29;20103;-78
2022/05/11 12:04:32;;;;;;;4.35;0.60;;;24.00;56.40;;;;;;4936263;29;20059;-78
2022/05/11 12:15:40;;;;;;;4.68;0.63;;;24.30;54.80;;;;;;4936873;29;20056;-77
2022/05/11 12:18:30;;;;;;;4.93;0.77;;;24.10;54.50;;;;;;4936113;29;20106;-78
2022/05/11 12:20:57;;;;;;;3.80;0.57;;;24.10;53.20;;;;;;4935963;29;20199;-79
2022/05/11 12:23:26;;;;;;;2.22;0.40;;;24.10;55.00;;;;;;4936143;29;20058;-79
2022/05/11 12:26:01;;;;;;;3.63;0.40;;;24.20;53.40;;;;;;4941305;29;20031;-80
2022/05/11 12:28:33;;;;;;;;;;;24.70;53.40;;;;;;4941879;29;20461;-78
2022/05/11 12:30:59;;;;;;;6.72;1.27;;;24.40;52.10;;;;;;4926770;29;19924;-79
2022/05/11 12:33:30;;;;;;;5.63;0.60;;;24.20;54.30;;;;;;4939968;29;20114;-77
2022/05/11 12:35:56;;;;;;;9.85;1.20;;;24.30;53.80;;;;;;4945207;29;20521;-79
2022/05/11 12:38:32;;;;;;;5.00;0.85;;;24.20;54.40;;;;;;4940294;29;20451;-79
2022/05/11 12:41:00;;;;;;;3.58;0.65;;;24.40;53.80;;;;;;4935335;29;20039;-77
2022/05/11 12:43:32;;;;;;;7.25;0.85;;;24.20;54.60;;;;;;4935221;29;20090;-77
2022/05/11 12:46:04;;;;;;;9.95;1.95;;;24.30;54.00;;;;;;4945417;29;20117;-77
2022/05/11 12:48:38;;;;;;;6.85;0.85;;;24.30;52.40;;;;;;4941792;29;20039;-77
2022/05/11 12:51:07;;;;;;;3.80;0.82;;;23.90;52.90;;;;;;4935280;29;20431;-76
2022/05/11 12:53:36;;;;;;;3.60;0.32;;;23.90;53.20;;;;;;4936540;29;20079;-76
2022/05/11 12:56:20;;;;;;;7.07;0.57;;;23.50;53.00;;;;;;4936081;29;20043;-76
2022/05/11 12:58:51;;;;;;;6.30;0.73;;;23.60;53.50;;;;;;4940099;29;20043;-76
2022/05/11 13:01:21;;;;;;;5.00;0.68;;;23.80;53.10;;;;;;4947714;29;20523;-77
2022/05/11 13:03:48;;;;;;;5.90;0.75;;;24.20;53.60;;;;;;4919810;29;20067;-76
2022/05/11 13:06:37;;;;;;;5.78;0.43;;;24.10;52.60;;;;;;4935339;29;20581;-76
2022/05/11 13:09:40;;;;;;;3.13;0.60;;;24.20;52.40;;;;;;4935003;29;20380;-76
2022/05/11 13:12:07;;;;;;;10.00;1.00;;;24.00;52.10;;;;;;4948137;29;20050;-76
2022/05/11 13:14:36;;;;;;;6.72;1.38;;;23.20;53.20;;;;;;4934650;29;20043;-77
2022/05/11 13:17:07;;;;;;;8.23;1.23;;;23.30;55.00;;;;;;4948728;28;20050;-76
2022/05/11 13:19:34;;;;;;;4.13;0.70;;;23.60;54.60;;;;;;4927708;29;20403;-77
2022/05/11 13:22:02;;;;;;;4.50;0.60;;;24.40;53.50;;;;;;4939572;29;20054;-79
2022/05/11 13:24:50;;;;;;;5.60;1.08;;;24.80;51.20;;;;;;4952809;29;20047;-79
2022/05/11 13:27:45;;;;;;;4.57;0.70;;;24.80;50.90;;;;;;4935945;28;20044;-79
2022/05/11 13:30:17;;;;;;;7.32;0.90;;;24.70;49.50;;;;;;4935552;29;20131;-80
2022/05/11 13:32:52;;;;;;;7.93;1.00;;;24.80;50.80;;;;;;4918992;29;20065;-79
2022/05/11 13:35:22;;;;;;;;;;;25.00;50.50;;;;;;4935931;29;20077;-79
2022/05/11 13:38:14;;;;;;;5.13;0.90;;;25.00;51.20;;;;;;4933705;29;20006;-79
2022/05/11 13:40:42;;;;;;;5.05;0.80;;;24.90;51.70;;;;;;4930073;29;20058;-78
2022/05/11 13:43:31;;;;;;;2.85;0.40;;;24.50;51.10;;;;;;4937135;29;20120;-79
2022/05/11 13:46:03;;;;;;;5.82;0.80;;;24.40;51.60;;;;;;4923789;29;20055;-79
2022/05/11 13:48:38;;;;;;;8.85;0.90;;;24.00;52.40;;;;;;4916647;29;20044;-78